createdAt,value
2017-03-29T00:00:40.775Z,0
2017-03-29T00:01:41.549Z,0
2017-03-29T00:02:42.321Z,0
2017-03-29T00:03:43.094Z,0
2017-03-29T00:04:43.874Z,0
2017-03-29T00:05:44.892Z,0
2017-03-29T00:06:45.667Z,0
2017-03-29T00:07:46.443Z,0
2017-03-29T00:08:47.216Z,0
2017-03-29T00:09:47.987Z,0
2017-03-29T00:10:49.071Z,0
2017-03-29T00:11:49.837Z,0
2017-03-29T00:12:50.612Z,0
2017-03-29T00:13:51.382Z,0
2017-03-29T00:14:52.162Z,0
2017-03-29T00:15:53.186Z,0
2017-03-29T00:16:53.961Z,0
2017-03-29T00:17:54.730Z,0
2017-03-29T00:18:55.502Z,0
2017-03-29T00:19:56.281Z,0
2017-03-29T00:20:57.303Z,0
2017-03-29T00:21:58.074Z,0
2017-03-29T00:22:58.847Z,0
2017-03-29T00:23:59.620Z,0
2017-03-29T00:25:00.397Z,0
2017-03-29T00:26:01.421Z,0
2017-03-29T00:27:02.200Z,0
2017-03-29T00:28:02.982Z,0
2017-03-29T00:29:03.753Z,0
2017-03-29T00:30:04.526Z,0
2017-03-29T00:31:05.552Z,0
2017-03-29T00:32:06.515Z,0
2017-03-29T00:33:07.288Z,0
2017-03-29T00:34:08.058Z,0
2017-03-29T00:35:08.830Z,0
2017-03-29T00:36:09.858Z,0
2017-03-29T00:37:10.632Z,0
2017-03-29T00:38:11.399Z,0
2017-03-29T00:39:12.171Z,0
2017-03-29T00:40:12.942Z,0
2017-03-29T00:41:13.968Z,0
2017-03-29T00:42:14.744Z,0
2017-03-29T00:43:15.513Z,0
2017-03-29T00:44:16.290Z,0
2017-03-29T00:45:17.059Z,0
2017-03-29T00:46:18.088Z,0
2017-03-29T00:47:18.860Z,0
2017-03-29T00:48:19.636Z,0
2017-03-29T00:49:20.408Z,0
2017-03-29T00:50:21.182Z,0
2017-03-29T00:51:22.203Z,0
2017-03-29T00:52:22.977Z,0
2017-03-29T00:53:23.752Z,0
2017-03-29T00:54:24.526Z,0
2017-03-29T00:55:25.293Z,0
2017-03-29T00:56:26.318Z,0
2017-03-29T00:57:27.094Z,0
2017-03-29T00:58:27.866Z,0
2017-03-29T00:59:28.641Z,0
2017-03-29T01:00:29.415Z,0
2017-03-29T01:01:30.439Z,0
2017-03-29T01:02:31.209Z,0
2017-03-29T01:03:31.994Z,0
2017-03-29T01:04:32.762Z,0
2017-03-29T01:05:33.532Z,0
2017-03-29T01:06:34.557Z,0
2017-03-29T01:07:35.331Z,0
2017-03-29T01:08:36.102Z,0
2017-03-29T01:09:36.886Z,0
2017-03-29T01:10:37.650Z,0
2017-03-29T01:11:38.676Z,0
2017-03-29T01:12:39.451Z,0
2017-03-29T01:13:40.226Z,0
2017-03-29T01:14:40.998Z,0
2017-03-29T01:15:41.768Z,0
2017-03-29T01:16:42.792Z,0
2017-03-29T01:17:43.574Z,0
2017-03-29T01:18:44.345Z,0
2017-03-29T01:19:45.114Z,0
2017-03-29T01:20:45.890Z,0
2017-03-29T01:21:46.912Z,0
2017-03-29T01:22:47.687Z,0
2017-03-29T01:23:48.459Z,0
2017-03-29T01:24:49.232Z,0
2017-03-29T01:25:50.011Z,0
2017-03-29T01:26:51.029Z,0
2017-03-29T01:27:51.801Z,0
2017-03-29T01:28:52.578Z,0
2017-03-29T01:29:53.354Z,0
2017-03-29T01:30:54.126Z,0
2017-03-29T01:31:55.151Z,0
2017-03-29T01:32:55.921Z,0
2017-03-29T01:33:56.694Z,0
2017-03-29T01:34:57.463Z,0
2017-03-29T01:35:58.239Z,0
2017-03-29T01:36:59.261Z,0
2017-03-29T01:38:00.033Z,0
2017-03-29T01:39:00.808Z,0
2017-03-29T01:40:01.579Z,0
2017-03-29T01:41:02.351Z,0
2017-03-29T01:42:03.372Z,0
2017-03-29T01:43:04.147Z,0
2017-03-29T01:44:04.921Z,0
2017-03-29T01:45:05.695Z,0
2017-03-29T01:46:06.469Z,0
2017-03-29T01:47:07.492Z,0
2017-03-29T01:48:08.266Z,0
2017-03-29T01:49:09.033Z,0
2017-03-29T01:50:09.808Z,0
2017-03-29T01:51:10.578Z,0
2017-03-29T01:52:11.648Z,0
2017-03-29T01:53:12.419Z,0
2017-03-29T01:54:13.190Z,0
2017-03-29T01:55:13.966Z,0
2017-03-29T01:56:14.740Z,0
2017-03-29T01:57:15.759Z,0
2017-03-29T01:58:16.532Z,0
2017-03-29T01:59:17.301Z,0
2017-03-29T02:00:18.075Z,0
2017-03-29T02:01:18.847Z,0
2017-03-29T02:02:19.922Z,0
2017-03-29T02:03:20.695Z,0
2017-03-29T02:04:21.466Z,0
2017-03-29T02:05:22.238Z,0
2017-03-29T02:06:23.007Z,0
2017-03-29T02:07:24.029Z,0
2017-03-29T02:08:24.803Z,0
2017-03-29T02:09:25.575Z,0
2017-03-29T02:10:26.350Z,0
2017-03-29T02:11:27.121Z,0
2017-03-29T02:12:28.144Z,0
2017-03-29T02:13:28.914Z,0
2017-03-29T02:14:29.688Z,0
2017-03-29T02:15:30.460Z,0
2017-03-29T02:16:31.230Z,0
2017-03-29T02:17:32.251Z,0
2017-03-29T02:18:33.018Z,0
2017-03-29T02:19:33.790Z,0
2017-03-29T02:20:34.564Z,0
2017-03-29T02:21:35.334Z,0
2017-03-29T02:22:36.357Z,0
2017-03-29T02:23:37.132Z,0
2017-03-29T02:24:37.903Z,0
2017-03-29T02:25:38.674Z,0
2017-03-29T02:26:39.450Z,0
2017-03-29T02:27:40.467Z,0
2017-03-29T02:28:41.236Z,0
2017-03-29T02:29:42.007Z,0
2017-03-29T02:30:42.779Z,0
2017-03-29T02:31:43.553Z,0
2017-03-29T02:32:44.573Z,0
2017-03-29T02:33:45.349Z,0
2017-03-29T02:34:46.116Z,0
2017-03-29T02:35:46.888Z,0
2017-03-29T02:36:47.659Z,0
2017-03-29T02:37:48.684Z,0
2017-03-29T02:38:49.455Z,0
2017-03-29T02:39:50.227Z,0
2017-03-29T02:40:50.996Z,0
2017-03-29T02:41:51.770Z,0
2017-03-29T02:42:52.788Z,0
2017-03-29T02:43:53.557Z,0
2017-03-29T02:44:54.329Z,0
2017-03-29T02:45:55.102Z,0
2017-03-29T02:46:55.873Z,0
2017-03-29T02:47:56.894Z,0
2017-03-29T02:48:57.664Z,0
2017-03-29T02:49:58.439Z,0
2017-03-29T02:50:59.207Z,0
2017-03-29T02:51:59.978Z,0
2017-03-29T02:53:00.999Z,0
2017-03-29T02:54:01.772Z,0
2017-03-29T02:55:02.544Z,0
2017-03-29T02:56:03.317Z,0
2017-03-29T02:57:04.090Z,0
2017-03-29T02:58:05.110Z,0
2017-03-29T02:59:05.883Z,0
2017-03-29T03:00:06.843Z,0
2017-03-29T03:01:07.617Z,0
2017-03-29T03:02:08.388Z,0
2017-03-29T03:03:09.405Z,0
2017-03-29T03:04:10.176Z,0
2017-03-29T03:05:10.947Z,0
2017-03-29T03:06:11.721Z,0
2017-03-29T03:07:12.493Z,0
2017-03-29T03:08:13.517Z,0
2017-03-29T03:09:14.291Z,0
2017-03-29T03:10:15.063Z,0
2017-03-29T03:11:15.838Z,0
2017-03-29T03:12:16.604Z,0
2017-03-29T03:13:17.676Z,0
2017-03-29T03:14:18.443Z,0
2017-03-29T03:15:19.214Z,0
2017-03-29T03:16:19.984Z,0
2017-03-29T03:17:20.753Z,0
2017-03-29T03:18:21.777Z,0
2017-03-29T03:19:22.549Z,0
2017-03-29T03:20:23.323Z,0
2017-03-29T03:21:24.096Z,0
2017-03-29T03:22:24.865Z,0
2017-03-29T03:23:25.888Z,0
2017-03-29T03:24:26.655Z,0
2017-03-29T03:25:27.429Z,0
2017-03-29T03:26:28.195Z,0
2017-03-29T03:27:28.971Z,0
2017-03-29T03:28:30.040Z,0
2017-03-29T03:29:30.807Z,0
2017-03-29T03:30:31.576Z,0
2017-03-29T03:31:32.352Z,0
2017-03-29T03:32:33.122Z,0
2017-03-29T03:33:34.145Z,0
2017-03-29T03:34:34.918Z,0
2017-03-29T03:35:35.689Z,0
2017-03-29T03:36:36.464Z,0
2017-03-29T03:37:37.231Z,0
2017-03-29T03:38:38.250Z,0
2017-03-29T03:39:39.022Z,0
2017-03-29T03:40:39.794Z,0
2017-03-29T03:41:40.563Z,0
2017-03-29T03:42:41.331Z,0
2017-03-29T03:43:42.352Z,0
2017-03-29T03:44:43.126Z,0
2017-03-29T03:45:43.898Z,0
2017-03-29T03:46:44.666Z,0
2017-03-29T03:47:45.440Z,0
2017-03-29T03:48:46.459Z,0
2017-03-29T03:49:47.233Z,0
2017-03-29T03:50:48.005Z,0
2017-03-29T03:51:48.775Z,0
2017-03-29T03:52:49.545Z,0
2017-03-29T03:53:50.568Z,0
2017-03-29T03:54:51.339Z,0
2017-03-29T03:55:52.111Z,0
2017-03-29T03:56:52.880Z,0
2017-03-29T03:57:53.648Z,0
2017-03-29T03:58:54.672Z,0
2017-03-29T03:59:55.440Z,0
2017-03-29T04:00:56.215Z,0
2017-03-29T04:01:56.984Z,0
2017-03-29T04:02:57.757Z,0
2017-03-29T04:03:58.779Z,0
2017-03-29T04:04:59.558Z,0
2017-03-29T04:06:00.320Z,0
2017-03-29T04:07:01.092Z,0
2017-03-29T04:08:01.861Z,0
2017-03-29T04:09:02.882Z,0
2017-03-29T04:10:03.655Z,0
2017-03-29T04:11:04.428Z,0
2017-03-29T04:12:05.196Z,0
2017-03-29T04:13:05.965Z,0
2017-03-29T04:14:06.984Z,0
2017-03-29T04:15:07.760Z,0
2017-03-29T04:16:08.534Z,0
2017-03-29T04:17:09.302Z,0
2017-03-29T04:18:10.073Z,0
2017-03-29T04:19:11.092Z,0
2017-03-29T04:20:11.864Z,0
2017-03-29T04:21:12.634Z,0
2017-03-29T04:22:13.408Z,0
2017-03-29T04:23:14.178Z,0
2017-03-29T04:24:15.200Z,0
2017-03-29T04:25:15.970Z,0
2017-03-29T04:26:16.740Z,0
2017-03-29T04:27:17.510Z,0
2017-03-29T04:28:18.292Z,0
2017-03-29T04:29:19.315Z,0
2017-03-29T04:30:20.082Z,0
2017-03-29T04:31:20.850Z,0
2017-03-29T04:32:21.626Z,0
2017-03-29T04:33:22.396Z,0
2017-03-29T04:34:23.416Z,0
2017-03-29T04:35:24.185Z,0
2017-03-29T04:36:24.955Z,0
2017-03-29T04:37:25.727Z,0
2017-03-29T04:38:26.497Z,0
2017-03-29T04:39:27.522Z,0
2017-03-29T04:40:28.287Z,0
2017-03-29T04:41:29.062Z,0
2017-03-29T04:42:29.830Z,0
2017-03-29T04:43:30.599Z,0
2017-03-29T04:44:31.620Z,0
2017-03-29T04:45:32.396Z,4
2017-03-29T04:46:33.356Z,0
2017-03-29T04:47:34.126Z,4
2017-03-29T04:48:34.896Z,4
2017-03-29T04:49:35.919Z,4
2017-03-29T04:50:36.691Z,4
2017-03-29T04:51:37.466Z,8
2017-03-29T04:52:38.240Z,8
2017-03-29T04:53:39.011Z,8
2017-03-29T04:54:40.038Z,12
2017-03-29T04:55:40.812Z,12
2017-03-29T04:56:41.585Z,16
2017-03-29T04:57:42.361Z,20
2017-03-29T04:58:43.131Z,24
2017-03-29T04:59:44.154Z,28
2017-03-29T05:00:44.927Z,36
2017-03-29T05:01:45.694Z,40
2017-03-29T05:02:46.470Z,48
2017-03-29T05:03:47.242Z,56
2017-03-29T05:04:48.315Z,64
2017-03-29T05:05:49.086Z,68
2017-03-29T05:06:49.856Z,76
2017-03-29T05:07:50.630Z,76
2017-03-29T05:08:51.405Z,80
2017-03-29T05:09:52.426Z,88
2017-03-29T05:10:53.199Z,92
2017-03-29T05:11:53.974Z,108
2017-03-29T05:12:54.747Z,120
2017-03-29T05:13:55.521Z,128
2017-03-29T05:14:56.543Z,132
2017-03-29T05:15:57.318Z,140
2017-03-29T05:16:58.089Z,148
2017-03-29T05:17:58.864Z,148
2017-03-29T05:18:59.636Z,148
2017-03-29T05:20:00.669Z,140
2017-03-29T05:21:01.433Z,140
2017-03-29T05:22:02.211Z,140
2017-03-29T05:23:02.983Z,152
2017-03-29T05:24:03.758Z,172
2017-03-29T05:25:04.779Z,200
2017-03-29T05:26:05.553Z,240
2017-03-29T05:27:06.329Z,276
2017-03-29T05:28:07.103Z,304
2017-03-29T05:29:07.878Z,332
2017-03-29T05:30:08.905Z,372
2017-03-29T05:31:09.678Z,428
2017-03-29T05:32:10.453Z,492
2017-03-29T05:33:11.227Z,528
2017-03-29T05:34:11.968Z,552
2017-03-29T05:35:12.996Z,576
2017-03-29T05:36:13.772Z,576
2017-03-29T05:37:14.548Z,568
2017-03-29T05:38:15.322Z,564
2017-03-29T05:39:16.093Z,556
2017-03-29T05:40:17.117Z,544
2017-03-29T05:41:17.893Z,544
2017-03-29T05:42:18.668Z,556
2017-03-29T05:43:19.441Z,576
2017-03-29T05:44:20.213Z,592
2017-03-29T05:45:21.239Z,612
2017-03-29T05:46:22.016Z,628
2017-03-29T05:47:22.789Z,640
2017-03-29T05:48:23.565Z,644
2017-03-29T05:49:24.527Z,632
2017-03-29T05:50:25.552Z,616
2017-03-29T05:51:26.326Z,612
2017-03-29T05:52:27.101Z,640
2017-03-29T05:53:27.876Z,704
2017-03-29T05:54:28.649Z,792
2017-03-29T05:55:29.673Z,872
2017-03-29T05:56:30.450Z,944
2017-03-29T05:57:31.227Z,996
2017-03-29T05:58:32.002Z,1020
2017-03-29T05:59:32.776Z,1060
2017-03-29T06:00:33.804Z,1100
2017-03-29T06:01:34.577Z,1152
2017-03-29T06:02:35.351Z,1196
2017-03-29T06:03:36.126Z,1248
2017-03-29T06:04:36.902Z,1288
2017-03-29T06:05:37.932Z,1288
2017-03-29T06:06:38.705Z,1268
2017-03-29T06:07:39.484Z,1256
2017-03-29T06:08:40.256Z,1236
2017-03-29T06:09:41.035Z,1260
2017-03-29T06:10:42.057Z,1316
2017-03-29T06:11:42.833Z,1328
2017-03-29T06:12:43.608Z,1304
2017-03-29T06:13:44.384Z,1300
2017-03-29T06:14:45.162Z,1300
2017-03-29T06:15:46.191Z,1276
2017-03-29T06:16:46.964Z,1204
2017-03-29T06:17:47.768Z,1144
2017-03-29T06:18:48.544Z,1172
2017-03-29T06:19:49.322Z,1216
2017-03-29T06:20:50.348Z,1248
2017-03-29T06:21:51.124Z,1364
2017-03-29T06:22:51.900Z,1528
2017-03-29T06:23:52.679Z,1656
2017-03-29T06:24:53.455Z,1720
2017-03-29T06:25:54.485Z,1716
2017-03-29T06:26:55.261Z,1724
2017-03-29T06:27:56.040Z,1764
2017-03-29T06:28:56.814Z,1836
2017-03-29T06:29:57.592Z,1952
2017-03-29T06:30:58.619Z,2020
2017-03-29T06:31:59.395Z,2068
2017-03-29T06:33:00.175Z,2080
2017-03-29T06:34:00.960Z,1988
2017-03-29T06:35:01.732Z,1916
2017-03-29T06:36:02.760Z,1948
2017-03-29T06:37:03.539Z,2036
2017-03-29T06:38:04.319Z,2032
2017-03-29T06:39:05.115Z,1944
2017-03-29T06:40:05.876Z,1916
2017-03-29T06:41:06.908Z,2020
2017-03-29T06:42:07.687Z,2228
2017-03-29T06:43:08.470Z,2444
2017-03-29T06:44:09.206Z,2656
2017-03-29T06:45:09.986Z,2856
2017-03-29T06:46:11.029Z,2844
2017-03-29T06:47:11.809Z,2728
2017-03-29T06:48:12.587Z,2636
2017-03-29T06:49:13.363Z,2688
2017-03-29T06:50:14.140Z,2836
2017-03-29T06:51:15.166Z,2924
2017-03-29T06:52:15.943Z,2920
2017-03-29T06:53:16.720Z,2852
2017-03-29T06:54:17.496Z,2708
2017-03-29T06:55:18.275Z,2412
2017-03-29T06:56:19.300Z,2120
2017-03-29T06:57:20.078Z,2280
2017-03-29T06:58:20.854Z,2476
2017-03-29T06:59:21.633Z,2388
2017-03-29T07:00:22.410Z,2516
2017-03-29T07:01:23.440Z,2912
2017-03-29T07:02:24.235Z,3076
2017-03-29T07:03:24.990Z,3012
2017-03-29T07:04:25.834Z,2880
2017-03-29T07:05:26.687Z,2756
2017-03-29T07:06:27.696Z,2764
2017-03-29T07:07:28.472Z,2832
2017-03-29T07:08:29.250Z,2756
2017-03-29T07:09:30.027Z,2616
2017-03-29T07:10:30.804Z,2448
2017-03-29T07:11:31.829Z,2204
2017-03-29T07:12:32.608Z,1932
2017-03-29T07:13:33.382Z,1764
2017-03-29T07:14:34.161Z,1768
2017-03-29T07:15:34.943Z,2060
2017-03-29T07:16:36.018Z,2872
2017-03-29T07:17:36.797Z,3436
2017-03-29T07:18:37.690Z,3472
2017-03-29T07:19:38.446Z,3496
2017-03-29T07:20:39.224Z,3636
2017-03-29T07:21:40.262Z,3568
2017-03-29T07:22:41.367Z,3348
2017-03-29T07:23:43.096Z,3592
2017-03-29T07:24:43.874Z,4064
2017-03-29T07:25:44.656Z,4556
2017-03-29T07:26:45.684Z,5056
2017-03-29T07:27:46.464Z,5484
2017-03-29T07:28:47.241Z,5824
2017-03-29T07:29:48.020Z,5864
2017-03-29T07:30:48.802Z,5540
2017-03-29T07:31:49.832Z,5116
2017-03-29T07:32:50.612Z,4596
2017-03-29T07:33:51.389Z,3836
2017-03-29T07:34:52.167Z,3672
2017-03-29T07:35:52.948Z,3648
2017-03-29T07:36:53.976Z,3952
2017-03-29T07:37:54.755Z,4476
2017-03-29T07:38:55.533Z,4948
2017-03-29T07:39:56.309Z,5352
2017-03-29T07:40:57.086Z,5640
2017-03-29T07:41:58.167Z,5884
2017-03-29T07:42:58.946Z,5996
2017-03-29T07:43:59.724Z,5948
2017-03-29T07:45:00.505Z,6000
2017-03-29T07:46:01.283Z,6400
2017-03-29T07:47:02.312Z,6792
2017-03-29T07:48:03.091Z,7152
2017-03-29T07:49:03.870Z,7264
2017-03-29T07:50:04.649Z,7412
2017-03-29T07:51:05.428Z,7364
2017-03-29T07:52:06.460Z,7348
2017-03-29T07:53:07.235Z,7780
2017-03-29T07:54:08.014Z,8092
2017-03-29T07:55:08.797Z,8740
2017-03-29T07:56:09.691Z,8936
2017-03-29T07:57:10.796Z,8740
2017-03-29T07:58:11.574Z,8924
2017-03-29T07:59:12.357Z,9344
2017-03-29T08:00:13.139Z,10168
2017-03-29T08:01:13.920Z,11648
2017-03-29T08:02:14.954Z,13196
2017-03-29T08:03:15.701Z,15496
2017-03-29T08:04:16.477Z,19904
2017-03-29T08:05:17.261Z,18496
2017-03-29T08:06:18.047Z,15748
2017-03-29T08:07:19.082Z,21440
2017-03-29T08:08:19.864Z,19648
2017-03-29T08:09:20.648Z,23168
2017-03-29T08:10:21.433Z,37760
2017-03-29T08:11:22.217Z,39776
2017-03-29T08:12:23.255Z,36992
2017-03-29T08:13:24.038Z,35520
2017-03-29T08:14:24.824Z,22944
2017-03-29T08:15:25.607Z,19584
2017-03-29T08:16:26.391Z,17600
2017-03-29T08:17:27.424Z,12836
2017-03-29T08:18:28.209Z,10324
2017-03-29T08:19:28.993Z,9184
2017-03-29T08:20:29.776Z,8960
2017-03-29T08:21:30.556Z,10488
2017-03-29T08:22:31.595Z,12228
2017-03-29T08:23:32.375Z,12420
2017-03-29T08:24:33.161Z,10920
2017-03-29T08:25:34.132Z,9232
2017-03-29T08:26:34.914Z,8012
2017-03-29T08:27:35.950Z,7648
2017-03-29T08:28:36.730Z,7964
2017-03-29T08:29:37.511Z,8592
2017-03-29T08:30:38.294Z,8516
2017-03-29T08:31:39.073Z,7588
2017-03-29T08:32:40.107Z,7024
2017-03-29T08:33:40.889Z,7276
2017-03-29T08:34:41.675Z,7232
2017-03-29T08:35:42.452Z,7396
2017-03-29T08:36:43.230Z,8264
2017-03-29T08:37:44.280Z,10016
2017-03-29T08:38:45.046Z,11928
2017-03-29T08:39:45.825Z,12824
2017-03-29T08:40:46.609Z,13728
2017-03-29T08:41:47.390Z,15040
2017-03-29T08:42:48.613Z,13536
2017-03-29T08:43:49.398Z,12820
2017-03-29T08:44:50.184Z,14564
2017-03-29T08:45:50.970Z,18272
2017-03-29T08:46:51.752Z,22080
2017-03-29T08:47:52.791Z,26560
2017-03-29T08:48:53.656Z,26976
2017-03-29T08:49:54.442Z,22656
2017-03-29T08:50:55.225Z,20672
2017-03-29T08:51:56.013Z,18112
2017-03-29T08:52:57.043Z,17248
2017-03-29T08:53:57.830Z,18528
2017-03-29T08:54:58.614Z,19456
2017-03-29T08:55:59.398Z,24512
2017-03-29T08:57:00.180Z,30464
2017-03-29T08:58:01.214Z,29792
2017-03-29T08:59:02.000Z,25376
2017-03-29T09:00:02.788Z,31520
2017-03-29T09:01:03.649Z,29984
2017-03-29T09:02:04.565Z,35168
2017-03-29T09:03:05.777Z,28832
2017-03-29T09:04:06.572Z,25952
2017-03-29T09:05:07.527Z,28160
2017-03-29T09:06:08.329Z,25216
2017-03-29T09:07:09.107Z,28928
2017-03-29T09:08:10.143Z,42560
2017-03-29T09:09:11.033Z,32448
2017-03-29T09:10:11.867Z,28032
2017-03-29T09:11:12.667Z,24672
2017-03-29T09:12:13.457Z,18368
2017-03-29T09:13:14.498Z,21568
2017-03-29T09:14:15.365Z,16704
2017-03-29T09:15:16.244Z,14960
2017-03-29T09:16:17.100Z,12768
2017-03-29T09:17:17.886Z,11360
2017-03-29T09:18:18.920Z,9944
2017-03-29T09:19:19.771Z,8432
2017-03-29T09:20:20.579Z,7240
2017-03-29T09:21:21.476Z,6456
2017-03-29T09:22:22.257Z,6076
2017-03-29T09:23:23.284Z,6716
2017-03-29T09:24:24.067Z,8472
2017-03-29T09:25:24.845Z,10268
2017-03-29T09:26:25.626Z,11572
2017-03-29T09:27:26.409Z,11696
2017-03-29T09:28:27.446Z,11540
2017-03-29T09:29:28.355Z,11036
2017-03-29T09:30:29.223Z,11636
2017-03-29T09:31:30.022Z,12656
2017-03-29T09:32:30.900Z,13420
2017-03-29T09:33:31.995Z,12556
2017-03-29T09:34:32.781Z,11308
2017-03-29T09:35:33.563Z,10600
2017-03-29T09:36:34.370Z,9944
2017-03-29T09:37:35.247Z,9988
2017-03-29T09:38:36.453Z,10136
2017-03-29T09:39:37.261Z,11796
2017-03-29T09:40:38.045Z,12392
2017-03-29T09:41:38.853Z,12104
2017-03-29T09:42:39.674Z,11036
2017-03-29T09:43:40.779Z,10060
2017-03-29T09:44:41.756Z,9604
2017-03-29T09:45:42.537Z,9092
2017-03-29T09:46:43.388Z,8364
2017-03-29T09:47:44.276Z,7532
2017-03-29T09:48:45.418Z,7024
2017-03-29T09:49:46.202Z,6912
2017-03-29T09:50:47.084Z,6540
2017-03-29T09:51:47.998Z,6004
2017-03-29T09:52:48.874Z,5612
2017-03-29T09:53:50.020Z,5808
2017-03-29T09:54:50.802Z,6572
2017-03-29T09:55:51.590Z,7040
2017-03-29T09:56:52.557Z,7484
2017-03-29T09:57:53.339Z,8300
2017-03-29T09:58:54.466Z,9096
2017-03-29T09:59:55.251Z,9052
2017-03-29T10:00:56.215Z,8068
2017-03-29T10:01:57.000Z,7612
2017-03-29T10:02:57.784Z,7956
2017-03-29T10:03:58.812Z,8412
2017-03-29T10:04:59.595Z,8748
2017-03-29T10:06:00.379Z,9536
2017-03-29T10:07:01.157Z,10500
2017-03-29T10:08:01.938Z,10284
2017-03-29T10:09:03.022Z,9564
2017-03-29T10:10:03.804Z,8616
2017-03-29T10:11:04.582Z,7904
2017-03-29T10:12:05.363Z,7580
2017-03-29T10:13:06.236Z,7604
2017-03-29T10:14:07.273Z,7652
2017-03-29T10:15:08.052Z,7112
2017-03-29T10:16:08.843Z,6624
2017-03-29T10:17:09.638Z,6356
2017-03-29T10:18:10.437Z,6520
2017-03-29T10:19:11.655Z,6564
2017-03-29T10:20:12.434Z,6772
2017-03-29T10:21:13.214Z,7736
2017-03-29T10:22:14.018Z,7896
2017-03-29T10:23:14.920Z,7424
2017-03-29T10:24:15.952Z,6972
2017-03-29T10:25:16.731Z,6840
2017-03-29T10:26:17.510Z,7268
2017-03-29T10:27:18.348Z,7996
2017-03-29T10:28:19.127Z,8120
2017-03-29T10:29:20.263Z,8548
2017-03-29T10:30:21.142Z,8824
2017-03-29T10:31:21.931Z,9144
2017-03-29T10:32:22.707Z,9404
2017-03-29T10:33:23.488Z,8944
2017-03-29T10:34:24.518Z,9304
2017-03-29T10:35:25.324Z,9704
2017-03-29T10:36:26.131Z,8136
2017-03-29T10:37:26.936Z,7980
2017-03-29T10:38:27.758Z,6920
2017-03-29T10:39:28.788Z,7232
2017-03-29T10:40:29.572Z,6776
2017-03-29T10:41:30.352Z,6728
2017-03-29T10:42:31.132Z,8620
2017-03-29T10:43:32.018Z,9516
2017-03-29T10:44:33.053Z,8776
2017-03-29T10:45:33.832Z,6256
2017-03-29T10:46:34.612Z,5452
2017-03-29T10:47:35.393Z,5196
2017-03-29T10:48:36.173Z,5024
2017-03-29T10:49:37.202Z,5244
2017-03-29T10:50:37.985Z,4892
2017-03-29T10:51:38.775Z,5128
2017-03-29T10:52:39.573Z,4888
2017-03-29T10:53:40.363Z,6132
2017-03-29T10:54:41.396Z,7292
2017-03-29T10:55:42.199Z,6024
2017-03-29T10:56:43.070Z,5916
2017-03-29T10:57:43.857Z,6640
2017-03-29T10:58:44.637Z,7528
2017-03-29T10:59:45.717Z,7020
2017-03-29T11:00:46.682Z,7152
2017-03-29T11:01:47.456Z,7340
2017-03-29T11:02:48.241Z,7600
2017-03-29T11:03:49.018Z,8152
2017-03-29T11:04:50.110Z,8704
2017-03-29T11:05:50.908Z,7228
2017-03-29T11:06:51.699Z,6380
2017-03-29T11:07:52.481Z,7072
2017-03-29T11:08:53.261Z,7124
2017-03-29T11:09:54.394Z,7008
2017-03-29T11:10:55.398Z,7168
2017-03-29T11:11:56.200Z,7220
2017-03-29T11:12:56.982Z,6668
2017-03-29T11:13:57.761Z,6392
2017-03-29T11:14:58.790Z,7364
2017-03-29T11:15:59.573Z,8356
2017-03-29T11:17:00.358Z,8960
2017-03-29T11:18:01.140Z,7472
2017-03-29T11:19:01.916Z,6824
2017-03-29T11:20:02.964Z,6672
2017-03-29T11:21:03.741Z,6204
2017-03-29T11:22:04.723Z,6056
2017-03-29T11:23:05.505Z,5736
2017-03-29T11:24:06.392Z,4976
2017-03-29T11:25:07.534Z,4380
2017-03-29T11:26:08.327Z,4664
2017-03-29T11:27:09.134Z,4172
2017-03-29T11:28:09.917Z,4292
2017-03-29T11:29:10.769Z,3952
2017-03-29T11:30:11.799Z,3928
2017-03-29T11:31:12.579Z,3816
2017-03-29T11:32:13.361Z,4384
2017-03-29T11:33:14.264Z,5432
2017-03-29T11:34:15.114Z,6448
2017-03-29T11:35:16.163Z,7948
2017-03-29T11:36:16.940Z,9332
2017-03-29T11:37:17.828Z,9648
2017-03-29T11:38:18.724Z,14172
2017-03-29T11:39:19.494Z,15932
2017-03-29T11:40:20.526Z,12620
2017-03-29T11:41:21.305Z,17920
2017-03-29T11:42:22.089Z,16136
2017-03-29T11:43:22.871Z,21760
2017-03-29T11:44:23.655Z,24000
2017-03-29T11:45:24.687Z,24064
2017-03-29T11:46:25.552Z,22784
2017-03-29T11:47:26.420Z,26368
2017-03-29T11:48:27.211Z,32192
2017-03-29T11:49:28.038Z,25056
2017-03-29T11:50:29.074Z,23296
2017-03-29T11:51:29.854Z,24416
2017-03-29T11:52:30.640Z,28352
2017-03-29T11:53:31.423Z,31552
2017-03-29T11:54:32.207Z,49856
2017-03-29T11:55:33.242Z,25856
2017-03-29T11:56:34.029Z,23168
2017-03-29T11:57:34.811Z,27424
2017-03-29T11:58:35.595Z,37472
2017-03-29T11:59:36.398Z,39072
2017-03-29T12:00:37.437Z,60800
2017-03-29T12:01:38.219Z,53248
2017-03-29T12:02:39.009Z,52928
2017-03-29T12:03:39.797Z,91360
2017-03-29T12:04:40.585Z,58848
2017-03-29T12:05:41.625Z,66560
2017-03-29T12:06:42.418Z,53376
2017-03-29T12:07:43.208Z,43456
2017-03-29T12:08:44.001Z,54432
2017-03-29T12:09:44.792Z,48096
2017-03-29T12:10:45.840Z,42016
2017-03-29T12:11:46.630Z,44384
2017-03-29T12:12:47.424Z,28128
2017-03-29T12:13:48.215Z,14252
2017-03-29T12:14:49.005Z,9612
2017-03-29T12:15:50.041Z,6516
2017-03-29T12:16:50.830Z,4976
2017-03-29T12:17:51.618Z,4348
2017-03-29T12:18:52.405Z,4464
2017-03-29T12:19:53.192Z,5252
2017-03-29T12:20:54.235Z,5932
2017-03-29T12:21:55.022Z,5000
2017-03-29T12:22:55.808Z,4260
2017-03-29T12:23:56.597Z,4268
2017-03-29T12:24:57.381Z,4148
2017-03-29T12:25:58.465Z,3856
2017-03-29T12:26:59.248Z,3516
2017-03-29T12:28:00.034Z,4480
2017-03-29T12:29:00.817Z,5420
2017-03-29T12:30:01.601Z,5688
2017-03-29T12:31:02.636Z,8648
2017-03-29T12:32:03.421Z,11284
2017-03-29T12:33:04.205Z,10708
2017-03-29T12:34:04.986Z,9836
2017-03-29T12:35:05.769Z,9780
2017-03-29T12:36:06.804Z,13272
2017-03-29T12:37:07.659Z,10428
2017-03-29T12:38:08.458Z,6224
2017-03-29T12:39:09.243Z,4256
2017-03-29T12:40:10.025Z,5120
2017-03-29T12:41:11.056Z,6184
2017-03-29T12:42:11.836Z,6476
2017-03-29T12:43:12.616Z,5892
2017-03-29T12:44:13.400Z,4968
2017-03-29T12:45:14.182Z,4952
2017-03-29T12:46:15.208Z,5224
2017-03-29T12:47:15.991Z,4824
2017-03-29T12:48:16.770Z,4404
2017-03-29T12:49:17.551Z,4292
2017-03-29T12:50:18.335Z,4520
2017-03-29T12:51:19.363Z,5496
2017-03-29T12:52:20.146Z,6648
2017-03-29T12:53:20.922Z,6780
2017-03-29T12:54:21.707Z,6524
2017-03-29T12:55:22.483Z,6488
2017-03-29T12:56:23.514Z,6432
2017-03-29T12:57:24.292Z,7656
2017-03-29T12:58:25.072Z,8592
2017-03-29T12:59:25.855Z,7504
2017-03-29T13:00:26.633Z,5156
2017-03-29T13:01:27.667Z,3380
2017-03-29T13:02:28.444Z,2496
2017-03-29T13:03:29.229Z,2272
2017-03-29T13:04:30.021Z,2488
2017-03-29T13:05:30.790Z,3328
2017-03-29T13:06:31.820Z,4388
2017-03-29T13:07:32.598Z,4808
2017-03-29T13:08:33.381Z,4708
2017-03-29T13:09:34.160Z,4932
2017-03-29T13:10:34.937Z,4668
2017-03-29T13:11:35.971Z,3572
2017-03-29T13:12:36.748Z,2584
2017-03-29T13:13:37.527Z,2140
2017-03-29T13:14:38.308Z,1896
2017-03-29T13:15:39.091Z,1952
2017-03-29T13:16:40.120Z,2028
2017-03-29T13:17:40.896Z,2024
2017-03-29T13:18:41.674Z,2060
2017-03-29T13:19:42.453Z,2120
2017-03-29T13:20:43.231Z,2068
2017-03-29T13:21:44.259Z,2128
2017-03-29T13:22:45.039Z,2168
2017-03-29T13:23:45.822Z,2200
2017-03-29T13:24:46.604Z,2372
2017-03-29T13:25:47.380Z,2652
2017-03-29T13:26:48.410Z,2816
2017-03-29T13:27:49.188Z,2840
2017-03-29T13:28:49.965Z,2824
2017-03-29T13:29:50.745Z,2688
2017-03-29T13:30:51.523Z,2528
2017-03-29T13:31:52.549Z,2404
2017-03-29T13:32:53.332Z,2252
2017-03-29T13:33:54.107Z,2028
2017-03-29T13:34:54.887Z,1988
2017-03-29T13:35:55.666Z,2360
2017-03-29T13:36:56.696Z,2696
2017-03-29T13:37:57.476Z,3040
2017-03-29T13:38:58.252Z,3456
2017-03-29T13:39:59.034Z,3928
2017-03-29T13:40:59.809Z,3936
2017-03-29T13:42:00.841Z,3636
2017-03-29T13:43:01.623Z,3780
2017-03-29T13:44:02.400Z,3816
2017-03-29T13:45:03.178Z,4248
2017-03-29T13:46:03.956Z,4836
2017-03-29T13:47:04.989Z,5544
2017-03-29T13:48:05.770Z,6472
2017-03-29T13:49:06.551Z,6908
2017-03-29T13:50:07.333Z,7040
2017-03-29T13:51:08.116Z,6864
2017-03-29T13:52:09.147Z,6576
2017-03-29T13:53:09.925Z,6284
2017-03-29T13:54:10.703Z,5992
2017-03-29T13:55:11.484Z,5788
2017-03-29T13:56:12.268Z,5780
2017-03-29T13:57:13.485Z,5544
2017-03-29T13:58:14.266Z,5408